Tropical Cyclones
[Index]
Main Index Home Page Stock Weather Photos Extreme Storms Discussion Storm News and Storm Chasing Reports Tropical Cyclones / Hurricanes / Typhoons Weather Data and Links Wild Fires / Bushfires Weather Observation Techniques Weather Picture Catalogue Tornado Pictures and Reports Stock Video Footage and DVDs for sale
Season 1983-1984 Tropical Cyclone INGRID Track Map
Season 1983-1984 Summaries: [BoM-AU] [JTWC-AU] [JTWC-SIO] [JTWC-SPAC] [JTWC-SH]
<<- Previous TC | BoM 1983-1984 Season | Next TC ->>

click for intensity scale information  Lat/long Grid: Show Hide

 Date Labels: Show Hide

Bureau of Meteorology Tropical Cyclone Data

Name: INGRID
Number: 656 / 198384_15

20 Feb 1984 09:00 UTC to 25 Feb 1984 03:00 UTC

    date/time    lat    long    hPa   cat  kts
1984-02-20 09   17.4   148.4   1001                     
1984-02-20 12   17.4   147.6   1001                     
1984-02-20 15   17.4   147.8   1001                     
1984-02-20 18   17.3   148.0   1001                     
1984-02-20 21   17.1   148.3   1001                     
1984-02-21 00   17.0   148.8   1000                     
1984-02-21 06   16.9   149.8    998                     
1984-02-21 12   17.0   150.5    995    1                
1984-02-21 18   17.1   150.8    995    1                
1984-02-22 00   17.2   151.0    995    1                
1984-02-22 06   17.1   151.3    993    1                
1984-02-22 12   16.8   151.7    985    2                
1984-02-22 18   16.8   152.4    976    2                
1984-02-23 00   16.9   153.6    975    2                
1984-02-23 06   17.3   155.1    985    2                
1984-02-23 12   18.0   156.4    985    2                
1984-02-23 18   19.0   157.3    992    1                
1984-02-24 00   19.7   157.8    995    1                
1984-02-24 06   20.4   158.2    995    1                
1984-02-24 12   20.8   158.9    997                     
1984-02-24 18   20.6   159.9    998                     
1984-02-25 00   20.6   160.7   1002                     
1984-02-25 03   20.6   160.8   1003                     
Winds are 10-min average.

Tropical cyclone tracks developed by Michael Bath using data from the Bureau of Meteorology and Google Maps.


[Australian Severe Weather index] [Copyright Notice] [Email Contacts] [Search This Site] [Privacy Policy]
Document: tropical_cyclone_ingrid.htm Updated: 30 May 2013